sensor_id;sensor_type;location;lat;lon;timestamp;pressure;altitude;pressure_sealevel;temperature;humidity
10476;BME280;26166;48.264;11.436;2024-01-16T00:00:27;95444.16;;;5.59;50.82
10476;BME280;26166;48.264;11.436;2024-01-16T00:03:27;95451.28;;;5.57;50.08
10476;BME280;26166;48.264;11.436;2024-01-16T00:06:28;95448.69;;;5.57;51.30
10476;BME280;26166;48.264;11.436;2024-01-16T00:09:28;95457.47;;;5.56;49.71
10476;BME280;26166;48.264;11.436;2024-01-16T00:12:28;95455.84;;;5.55;50.65
10476;BME280;26166;48.264;11.436;2024-01-16T00:15:29;95465.28;;;5.56;50.42
10476;BME280;26166;48.264;11.436;2024-01-16T00:18:29;95469.69;;;5.55;49.91
10476;BME280;26166;48.264;11.436;2024-01-16T00:21:29;95474.09;;;5.55;50.28
10476;BME280;26166;48.264;11.436;2024-01-16T00:24:30;95477.50;;;5.55;50.50
10476;BME280;26166;48.264;11.436;2024-01-16T00:27:30;95478.63;;;5.53;49.70
10476;BME280;26166;48.264;11.436;2024-01-16T00:30:30;95486.44;;;5.53;50.20
10476;BME280;26166;48.264;11.436;2024-01-16T00:33:30;95486.44;;;5.53;48.97
10476;BME280;26166;48.264;11.436;2024-01-16T00:36:31;95481.38;;;5.51;49.25
10476;BME280;26166;48.264;11.436;2024-01-16T00:39:31;95490.00;;;5.52;49.75
10476;BME280;26166;48.264;11.436;2024-01-16T00:42:31;95501.72;;;5.48;47.91
10476;BME280;26166;48.264;11.436;2024-01-16T00:45:31;95508.53;;;5.49;48.12
10476;BME280;26166;48.264;11.436;2024-01-16T00:48:32;95517.34;;;5.48;49.02
10476;BME280;26166;48.264;11.436;2024-01-16T00:51:32;95519.66;;;5.51;48.61
10476;BME280;26166;48.264;11.436;2024-01-16T00:54:32;95516.22;;;5.50;47.37
10476;BME280;26166;48.264;11.436;2024-01-16T00:57:32;95524.03;;;5.50;49.11
10476;BME280;26166;48.264;11.436;2024-01-16T01:00:33;95530.88;;;5.51;48.22
10476;BME280;26166;48.264;11.436;2024-01-16T01:03:35;95535.13;;;5.52;47.93
10476;BME280;26166;48.264;11.436;2024-01-16T01:06:35;95538.03;;;5.49;48.00
10476;BME280;26166;48.264;11.436;2024-01-16T01:09:35;95534.59;;;5.49;48.32
10476;BME280;26166;48.264;11.436;2024-01-16T01:12:36;95547.78;;;5.47;48.34
10476;BME280;26166;48.264;11.436;2024-01-16T01:15:36;95545.19;;;5.47;48.30
10476;BME280;26166;48.264;11.436;2024-01-16T01:18:36;95543.56;;;5.46;49.29
10476;BME280;26166;48.264;11.436;2024-01-16T01:21:36;95555.31;;;5.50;47.98
10476;BME280;26166;48.264;11.436;2024-01-16T01:24:36;95551.19;;;5.48;48.70
10476;BME280;26166;48.264;11.436;2024-01-16T01:27:37;95554.50;;;5.50;49.03
10476;BME280;26166;48.264;11.436;2024-01-16T01:30:37;95561.84;;;5.54;49.21
10476;BME280;26166;48.264;11.436;2024-01-16T01:33:37;95565.25;;;5.55;49.06
10476;BME280;26166;48.264;11.436;2024-01-16T01:36:38;95575.69;;;5.55;48.45
10476;BME280;26166;48.264;11.436;2024-01-16T01:39:38;95575.38;;;5.58;48.08
10476;BME280;26166;48.264;11.436;2024-01-16T01:42:40;95588.72;;;5.55;49.10
10476;BME280;26166;48.264;11.436;2024-01-16T01:45:40;95589.69;;;5.54;49.16
10476;BME280;26166;48.264;11.436;2024-01-16T01:48:41;95590.63;;;5.53;49.15
10476;BME280;26166;48.264;11.436;2024-01-16T01:51:41;95590.50;;;5.54;49.24
10476;BME280;26166;48.264;11.436;2024-01-16T01:54:42;95598.16;;;5.56;49.44
10476;BME280;26166;48.264;11.436;2024-01-16T01:57:42;95604.06;;;5.58;48.02
10476;BME280;26166;48.264;11.436;2024-01-16T02:00:42;95596.06;;;5.60;48.05
10476;BME280;26166;48.264;11.436;2024-01-16T02:03:44;95607.94;;;5.54;48.97
10476;BME280;26166;48.264;11.436;2024-01-16T02:06:44;95601.06;;;5.53;48.44
10476;BME280;26166;48.264;11.436;2024-01-16T02:09:44;95610.97;;;5.49;48.87
10476;BME280;26166;48.264;11.436;2024-01-16T02:12:45;95611.78;;;5.50;48.61
10476;BME280;26166;48.264;11.436;2024-01-16T02:15:45;95615.28;;;5.59;47.88
10476;BME280;26166;48.264;11.436;2024-01-16T02:18:45;95622.41;;;5.56;48.77
10476;BME280;26166;48.264;11.436;2024-01-16T02:21:49;95616.38;;;5.56;48.88
10476;BME280;26166;48.264;11.436;2024-01-16T02:24:51;95610.66;;;5.52;47.80
10476;BME280;26166;48.264;11.436;2024-01-16T02:27:51;95610.53;;;5.54;48.37
10476;BME280;26166;48.264;11.436;2024-01-16T02:30:51;95612.31;;;5.53;47.58
10476;BME280;26166;48.264;11.436;2024-01-16T02:33:51;95614.06;;;5.53;50.25
10476;BME280;26166;48.264;11.436;2024-01-16T02:36:51;95613.94;;;5.54;48.21
10476;BME280;26166;48.264;11.436;2024-01-16T02:39:52;95613.44;;;5.51;48.40
10476;BME280;26166;48.264;11.436;2024-01-16T02:42:52;95610.97;;;5.49;49.05
10476;BME280;26166;48.264;11.436;2024-01-16T02:45:52;95612.09;;;5.47;48.84
10476;BME280;26166;48.264;11.436;2024-01-16T02:48:53;95619.91;;;5.47;48.29
10476;BME280;26166;48.264;11.436;2024-01-16T02:51:53;95611.56;;;5.43;49.49
10476;BME280;26166;48.264;11.436;2024-01-16T02:54:54;95608.16;;;5.43;48.42
10476;BME280;26166;48.264;11.436;2024-01-16T02:57:54;95614.34;;;5.42;48.59
10476;BME280;26166;48.264;11.436;2024-01-16T03:00:55;95623.78;;;5.43;48.76
10476;BME280;26166;48.264;11.436;2024-01-16T03:03:55;95625.56;;;5.42;48.51
10476;BME280;26166;48.264;11.436;2024-01-16T03:06:55;95621.97;;;5.43;48.31
10476;BME280;26166;48.264;11.436;2024-01-16T03:09:55;95625.56;;;5.42;48.39
10476;BME280;26166;48.264;11.436;2024-01-16T03:12:56;95628.81;;;5.44;48.24
10476;BME280;26166;48.264;11.436;2024-01-16T03:15:57;95625.94;;;5.47;47.05
10476;BME280;26166;48.264;11.436;2024-01-16T03:18:57;95627.72;;;5.47;48.64
10476;BME280;26166;48.264;11.436;2024-01-16T03:21:57;95626.75;;;5.48;47.40
10476;BME280;26166;48.264;11.436;2024-01-16T03:24:58;95625.34;;;5.53;47.45
10476;BME280;26166;48.264;11.436;2024-01-16T03:27:58;95631.03;;;5.57;47.39
10476;BME280;26166;48.264;11.436;2024-01-16T03:30:59;95628.97;;;5.61;47.84
10476;BME280;26166;48.264;11.436;2024-01-16T03:33:59;95629.78;;;5.61;47.00
10476;BME280;26166;48.264;11.436;2024-01-16T03:36:59;95627.63;;;5.56;46.84
10476;BME280;26166;48.264;11.436;2024-01-16T03:39:59;95625.19;;;5.55;46.82
10476;BME280;26166;48.264;11.436;2024-01-16T03:43:00;95633.97;;;5.54;47.37
10476;BME280;26166;48.264;11.436;2024-01-16T03:46:00;95634.56;;;5.48;47.11
10476;BME280;26166;48.264;11.436;2024-01-16T03:49:01;95631.81;;;5.49;47.52
10476;BME280;26166;48.264;11.436;2024-01-16T03:52:01;95633.97;;;5.54;46.32
10476;BME280;26166;48.264;11.436;2024-01-16T03:55:01;95622.28;;;5.58;46.97
10476;BME280;26166;48.264;11.436;2024-01-16T03:58:01;95621.97;;;5.61;48.34
10476;BME280;26166;48.264;11.436;2024-01-16T04:01:01;95617.44;;;5.63;46.79
10476;BME280;26166;48.264;11.436;2024-01-16T04:04:02;95624.94;;;5.66;46.90
10476;BME280;26166;48.264;11.436;2024-01-16T04:07:02;95621.50;;;5.66;46.34
10476;BME280;26166;48.264;11.436;2024-01-16T04:10:03;95618.09;;;5.65;46.85
10476;BME280;26166;48.264;11.436;2024-01-16T04:13:05;95620.03;;;5.63;46.29
10476;BME280;26166;48.264;11.436;2024-01-16T04:16:06;95624.88;;;5.58;46.63
10476;BME280;26166;48.264;11.436;2024-01-16T04:19:06;95623.31;;;5.47;46.11
10476;BME280;26166;48.264;11.436;2024-01-16T04:22:07;95632.72;;;5.40;45.88
10476;BME280;26166;48.264;11.436;2024-01-16T04:25:07;95635.75;;;5.36;45.88
10476;BME280;26166;48.264;11.436;2024-01-16T04:28:07;95637.41;;;5.37;45.86
10476;BME280;26166;48.264;11.436;2024-01-16T04:31:08;95645.59;;;5.42;46.77
10476;BME280;26166;48.264;11.436;2024-01-16T04:34:08;95641.47;;;5.39;45.75
10476;BME280;26166;48.264;11.436;2024-01-16T04:37:08;95641.19;;;5.42;46.83
10476;BME280;26166;48.264;11.436;2024-01-16T04:40:09;95648.56;;;5.47;46.66
10476;BME280;26166;48.264;11.436;2024-01-16T04:43:09;95645.31;;;5.45;46.28
10476;BME280;26166;48.264;11.436;2024-01-16T04:46:09;95649.91;;;5.51;46.25
10476;BME280;26166;48.264;11.436;2024-01-16T04:49:10;95636.88;;;5.51;45.23
10476;BME280;26166;48.264;11.436;2024-01-16T04:52:10;95627.44;;;5.50;45.65
10476;BME280;26166;48.264;11.436;2024-01-16T04:55:11;95630.97;;;5.49;45.84
10476;BME280;26166;48.264;11.436;2024-01-16T04:58:11;95624.38;;;5.54;46.31
10476;BME280;26166;48.264;11.436;2024-01-16T05:01:11;95628.44;;;5.57;47.98
10476;BME280;26166;48.264;11.436;2024-01-16T05:04:12;95631.72;;;5.59;45.95
10476;BME280;26166;48.264;11.436;2024-01-16T05:07:13;95630.75;;;5.60;46.29
10476;BME280;26166;48.264;11.436;2024-01-16T05:10:13;95628.97;;;5.61;46.28
10476;BME280;26166;48.264;11.436;2024-01-16T05:13:13;95626.19;;;5.62;47.66
10476;BME280;26166;48.264;11.436;2024-01-16T05:16:13;95619.34;;;5.61;46.54
10476;BME280;26166;48.264;11.436;2024-01-16T05:19:13;95621.97;;;5.61;47.66
10476;BME280;26166;48.264;11.436;2024-01-16T05:22:15;95615.78;;;5.62;47.34
10476;BME280;26166;48.264;11.436;2024-01-16T05:25:15;95619.97;;;5.55;46.28
10476;BME280;26166;48.264;11.436;2024-01-16T05:28:17;95608.38;;;5.49;45.36
10476;BME280;26166;48.264;11.436;2024-01-16T05:31:17;95612.09;;;5.47;47.03
10476;BME280;26166;48.264;11.436;2024-01-16T05:34:19;95614.03;;;5.45;45.56
10476;BME280;26166;48.264;11.436;2024-01-16T05:37:19;95605.53;;;5.43;45.81
10476;BME280;26166;48.264;11.436;2024-01-16T05:40:20;95605.53;;;5.43;47.30
10476;BME280;26166;48.264;11.436;2024-01-16T05:43:20;95611.72;;;5.42;46.82
10476;BME280;26166;48.264;11.436;2024-01-16T05:46:20;95612.69;;;5.41;44.95
10476;BME280;26166;48.264;11.436;2024-01-16T05:49:20;95612.03;;;5.39;44.79
10476;BME280;26166;48.264;11.436;2024-01-16T05:52:20;95615.22;;;5.32;45.47
10476;BME280;26166;48.264;11.436;2024-01-16T05:55:21;95608.88;;;5.35;44.73
10476;BME280;26166;48.264;11.436;2024-01-16T05:58:21;95618.19;;;5.38;45.53
10476;BME280;26166;48.264;11.436;2024-01-16T06:01:21;95627.81;;;5.37;44.88
10476;BME280;26166;48.264;11.436;2024-01-16T06:04:22;95617.50;;;5.36;44.57
10476;BME280;26166;48.264;11.436;2024-01-16T06:07:22;95620.97;;;5.36;45.35
10476;BME280;26166;48.264;11.436;2024-01-16T06:10:22;95620.50;;;5.41;44.90
10476;BME280;26166;48.264;11.436;2024-01-16T06:13:22;95616.69;;;5.35;44.73
10476;BME280;26166;48.264;11.436;2024-01-16T06:16:23;95609.88;;;5.16;44.52
10476;BME280;26166;48.264;11.436;2024-01-16T06:19:23;95607.19;;;5.08;44.81
10476;BME280;26166;48.264;11.436;2024-01-16T06:22:23;95604.94;;;5.13;44.58
10476;BME280;26166;48.264;11.436;2024-01-16T06:25:23;95607.28;;;5.16;44.42
10476;BME280;26166;48.264;11.436;2024-01-16T06:28:24;95610.94;;;5.23;44.47
10476;BME280;26166;48.264;11.436;2024-01-16T06:31:24;95607.34;;;5.24;45.81
10476;BME280;26166;48.264;11.436;2024-01-16T06:34:26;95607.06;;;5.27;45.72
10476;BME280;26166;48.264;11.436;2024-01-16T06:37:27;95613.59;;;5.31;45.67
10476;BME280;26166;48.264;11.436;2024-01-16T06:40:27;95606.72;;;5.30;45.46
10476;BME280;26166;48.264;11.436;2024-01-16T06:43:27;95617.16;;;5.30;43.93
10476;BME280;26166;48.264;11.436;2024-01-16T06:46:27;95615.69;;;5.10;44.16
10476;BME280;26166;48.264;11.436;2024-01-16T06:49:27;95617.16;;;4.95;45.86
10476;BME280;26166;48.264;11.436;2024-01-16T06:52:27;95621.09;;;4.99;44.90
10476;BME280;26166;48.264;11.436;2024-01-16T06:55:28;95627.00;;;5.01;45.49
10476;BME280;26166;48.264;11.436;2024-01-16T06:58:28;95621.34;;;5.05;45.78
10476;BME280;26166;48.264;11.436;2024-01-16T07:01:28;95629.38;;;5.12;46.12
10476;BME280;26166;48.264;11.436;2024-01-16T07:04:29;95625.50;;;5.16;45.86
10476;BME280;26166;48.264;11.436;2024-01-16T07:07:29;95624.41;;;5.19;45.73
10476;BME280;26166;48.264;11.436;2024-01-16T07:10:30;95612.56;;;5.24;45.34
10476;BME280;26166;48.264;11.436;2024-01-16T07:13:31;95613.22;;;5.26;45.52
10476;BME280;26166;48.264;11.436;2024-01-16T07:16:31;95620.22;;;5.26;46.28
10476;BME280;26166;48.264;11.436;2024-01-16T07:19:32;95625.41;;;5.26;45.25
10476;BME280;26166;48.264;11.436;2024-01-16T07:22:32;95617.97;;;5.31;44.66
10476;BME280;26166;48.264;11.436;2024-01-16T07:25:32;95637.25;;;5.20;44.83
10476;BME280;26166;48.264;11.436;2024-01-16T07:28:32;95631.38;;;5.00;44.09
10476;BME280;26166;48.264;11.436;2024-01-16T07:31:32;95635.09;;;4.98;45.69
10476;BME280;26166;48.264;11.436;2024-01-16T07:34:33;95639.84;;;5.02;46.15
10476;BME280;26166;48.264;11.436;2024-01-16T07:37:33;95644.44;;;5.09;44.82
10476;BME280;26166;48.264;11.436;2024-01-16T07:40:33;95642.09;;;5.15;45.57
10476;BME280;26166;48.264;11.436;2024-01-16T07:43:33;95639.19;;;5.18;45.68
10476;BME280;26166;48.264;11.436;2024-01-16T07:46:35;95640.53;;;5.22;45.83
10476;BME280;26166;48.264;11.436;2024-01-16T07:49:35;95641.03;;;5.26;46.05
10476;BME280;26166;48.264;11.436;2024-01-16T07:52:35;95639.41;;;5.25;45.49
10476;BME280;26166;48.264;11.436;2024-01-16T07:55:35;95651.97;;;5.29;45.50
10476;BME280;26166;48.264;11.436;2024-01-16T07:58:36;95638.81;;;5.31;46.00
10476;BME280;26166;48.264;11.436;2024-01-16T08:01:36;95634.28;;;5.33;45.96
10476;BME280;26166;48.264;11.436;2024-01-16T08:04:37;95633.81;;;5.38;44.82
10476;BME280;26166;48.264;11.436;2024-01-16T08:07:38;95625.03;;;5.39;45.52
10476;BME280;26166;48.264;11.436;2024-01-16T08:10:40;95633.53;;;5.41;45.91
10476;BME280;26166;48.264;11.436;2024-01-16T08:13:41;95635.16;;;5.42;44.97
10476;BME280;26166;48.264;11.436;2024-01-16T08:16:41;95639.25;;;5.44;44.67
10476;BME280;26166;48.264;11.436;2024-01-16T08:19:41;95637.47;;;5.45;46.25
10476;BME280;26166;48.264;11.436;2024-01-16T08:22:42;95637.63;;;5.43;45.61
10476;BME280;26166;48.264;11.436;2024-01-16T08:25:42;95637.47;;;5.45;45.40
10476;BME280;26166;48.264;11.436;2024-01-16T08:28:42;95638.13;;;5.47;45.05
10476;BME280;26166;48.264;11.436;2024-01-16T08:31:42;95638.31;;;5.45;44.71
10476;BME280;26166;48.264;11.436;2024-01-16T08:34:42;95639.94;;;5.46;45.06
10476;BME280;26166;48.264;11.436;2024-01-16T08:37:43;95631.31;;;5.46;45.64
10476;BME280;26166;48.264;11.436;2024-01-16T08:40:43;95632.94;;;5.47;45.87
10476;BME280;26166;48.264;11.436;2024-01-16T08:43:43;95632.13;;;5.46;45.37
10476;BME280;26166;48.264;11.436;2024-01-16T08:46:43;95626.91;;;5.46;45.94
10476;BME280;26166;48.264;11.436;2024-01-16T08:49:43;95634.56;;;5.48;45.32
10476;BME280;26166;48.264;11.436;2024-01-16T08:52:44;95626.75;;;5.48;45.72
10476;BME280;26166;48.264;11.436;2024-01-16T08:55:44;95620.56;;;5.49;45.79
10476;BME280;26166;48.264;11.436;2024-01-16T08:58:44;95618.13;;;5.47;45.33
10476;BME280;26166;48.264;11.436;2024-01-16T09:01:46;95622.22;;;5.50;45.96
10476;BME280;26166;48.264;11.436;2024-01-16T09:04:46;95618.34;;;5.54;45.52
10476;BME280;26166;48.264;11.436;2024-01-16T09:07:47;95613.13;;;5.54;45.00
10476;BME280;26166;48.264;11.436;2024-01-16T09:10:47;95609.72;;;5.53;46.02
10476;BME280;26166;48.264;11.436;2024-01-16T09:13:48;95609.91;;;5.60;45.30
10476;BME280;26166;48.264;11.436;2024-01-16T09:16:48;95607.31;;;5.60;45.30
10476;BME280;26166;48.264;11.436;2024-01-16T09:19:48;95608.81;;;5.63;45.26
10476;BME280;26166;48.264;11.436;2024-01-16T09:22:48;95603.44;;;5.64;44.83
10476;BME280;26166;48.264;11.436;2024-01-16T09:25:50;95595.78;;;5.63;45.30
10476;BME280;26166;48.264;11.436;2024-01-16T09:28:50;95595.63;;;5.64;45.30
10476;BME280;26166;48.264;11.436;2024-01-16T09:31:50;95600.81;;;5.64;44.99
10476;BME280;26166;48.264;11.436;2024-01-16T09:34:52;95604.53;;;5.62;45.35
10476;BME280;26166;48.264;11.436;2024-01-16T09:37:53;95606.03;;;5.64;44.96
10476;BME280;26166;48.264;11.436;2024-01-16T09:40:53;95613.56;;;5.67;45.25
10476;BME280;26166;48.264;11.436;2024-01-16T09:43:58;95615.72;;;5.72;44.93
10476;BME280;26166;48.264;11.436;2024-01-16T09:46:58;95613.09;;;5.72;44.30
10476;BME280;26166;48.264;11.436;2024-01-16T09:50:00;95605.41;;;5.70;44.83
10476;BME280;26166;48.264;11.436;2024-01-16T09:53:02;95606.09;;;5.72;45.05
10476;BME280;26166;48.264;11.436;2024-01-16T09:56:03;95601.19;;;5.69;45.45
10476;BME280;26166;48.264;11.436;2024-01-16T09:59:05;95603.28;;;5.66;45.67
10476;BME280;26166;48.264;11.436;2024-01-16T10:02:07;95610.78;;;5.69;44.78
10476;BME280;26166;48.264;11.436;2024-01-16T10:05:12;95597.59;;;5.70;45.10
10476;BME280;26166;48.264;11.436;2024-01-16T10:08:12;95594.34;;;5.68;45.07
10476;BME280;26166;48.264;11.436;2024-01-16T10:11:12;95597.59;;;5.70;45.17
10476;BME280;26166;48.264;11.436;2024-01-16T10:14:13;95595.66;;;5.72;44.70
10476;BME280;26166;48.264;11.436;2024-01-16T10:17:13;95591.94;;;5.75;45.06
10476;BME280;26166;48.264;11.436;2024-01-16T10:20:18;95586.59;;;5.76;45.71
10476;BME280;26166;48.264;11.436;2024-01-16T10:23:31;95590.47;;;5.72;45.44
10476;BME280;26166;48.264;11.436;2024-01-16T10:26:34;95597.59;;;5.70;45.85
10476;BME280;26166;48.264;11.436;2024-01-16T10:29:35;95588.84;;;5.71;46.11
10476;BME280;26166;48.264;11.436;2024-01-16T10:32:37;95580.34;;;5.69;45.40
10476;BME280;26166;48.264;11.436;2024-01-16T10:35:37;95575.13;;;5.69;46.29
10476;BME280;26166;48.264;11.436;2024-01-16T10:38:41;95572.22;;;5.72;45.67
10476;BME280;26166;48.264;11.436;2024-01-16T10:41:41;95569.28;;;5.75;45.09
10476;BME280;26166;48.264;11.436;2024-01-16T10:44:54;95569.09;;;5.69;45.21
10476;BME280;26166;48.264;11.436;2024-01-16T10:51:05;95568.88;;;5.62;45.39
10476;BME280;26166;48.264;11.436;2024-01-16T10:54:05;95561.75;;;5.64;45.33
10476;BME280;26166;48.264;11.436;2024-01-16T10:57:08;95566.66;;;5.67;45.89
10476;BME280;26166;48.264;11.436;2024-01-16T11:00:08;95568.28;;;5.68;45.32
10476;BME280;26166;48.264;11.436;2024-01-16T11:03:10;95571.34;;;5.64;44.96
10476;BME280;26166;48.264;11.436;2024-01-16T11:06:12;95571.06;;;5.67;45.05
10476;BME280;26166;48.264;11.436;2024-01-16T11:09:14;95561.63;;;5.74;45.82
10476;BME280;26166;48.264;11.436;2024-01-16T11:12:15;95562.97;;;5.78;44.84
10476;BME280;26166;48.264;11.436;2024-01-16T11:15:17;95558.06;;;5.75;45.34
10476;BME280;26166;48.264;11.436;2024-01-16T11:18:17;95559.84;;;5.74;45.05
10476;BME280;26166;48.264;11.436;2024-01-16T11:21:19;95554.50;;;5.76;45.70
10476;BME280;26166;48.264;11.436;2024-01-16T11:24:19;95551.03;;;5.75;44.84
10476;BME280;26166;48.264;11.436;2024-01-16T11:27:23;95542.75;;;5.72;45.79
10476;BME280;26166;48.264;11.436;2024-01-16T11:30:32;95530.66;;;5.71;46.01
10476;BME280;26166;48.264;11.436;2024-01-16T11:36:51;95541.59;;;5.74;45.49
10476;BME280;26166;48.264;11.436;2024-01-16T11:40:11;95539.00;;;5.74;46.27
10476;BME280;26166;48.264;11.436;2024-01-16T11:46:59;95541.94;;;5.71;45.90
10476;BME280;26166;48.264;11.436;2024-01-16T11:50:09;95547.78;;;5.73;46.30
10476;BME280;26166;48.264;11.436;2024-01-16T11:53:09;95537.19;;;5.75;45.17
10476;BME280;26166;48.264;11.436;2024-01-16T11:56:27;95529.25;;;5.76;45.92
10476;BME280;26166;48.264;11.436;2024-01-16T12:02:56;95511.69;;;5.87;46.08
10476;BME280;26166;48.264;11.436;2024-01-16T12:05:57;95497.56;;;5.89;46.26
10476;BME280;26166;48.264;11.436;2024-01-16T12:12:14;95487.81;;;5.65;46.75
10476;BME280;26166;48.264;11.436;2024-01-16T12:18:18;95470.59;;;5.72;49.13
10476;BME280;26166;48.264;11.436;2024-01-16T12:21:18;95468.63;;;5.74;49.29
10476;BME280;26166;48.264;11.436;2024-01-16T12:24:19;95464.09;;;5.76;48.72
10476;BME280;26166;48.264;11.436;2024-01-16T12:27:19;95459.53;;;5.78;48.03
10476;BME280;26166;48.264;11.436;2024-01-16T12:30:20;95452.00;;;5.75;48.21
10476;BME280;26166;48.264;11.436;2024-01-16T12:33:23;95454.31;;;5.78;48.45
10476;BME280;26166;48.264;11.436;2024-01-16T12:36:23;95455.31;;;5.77;47.92
10476;BME280;26166;48.264;11.436;2024-01-16T12:39:24;95443.91;;;5.78;48.51
10476;BME280;26166;48.264;11.436;2024-01-16T12:42:24;95444.88;;;5.77;46.82
10476;BME280;26166;48.264;11.436;2024-01-16T12:45:24;95449.09;;;5.78;47.00
10476;BME280;26166;48.264;11.436;2024-01-16T12:48:25;95439.69;;;5.86;48.30
10476;BME280;26166;48.264;11.436;2024-01-16T12:51:26;95450.59;;;5.81;46.97
10476;BME280;26166;48.264;11.436;2024-01-16T12:54:26;95444.19;;;5.75;48.04
10476;BME280;26166;48.264;11.436;2024-01-16T12:57:26;95443.72;;;5.72;47.47
10476;BME280;26166;48.264;11.436;2024-01-16T13:00:26;95441.47;;;5.77;47.86
10476;BME280;26166;48.264;11.436;2024-01-16T13:03:27;95430.22;;;5.76;46.72
10476;BME280;26166;48.264;11.436;2024-01-16T13:06:27;95425.97;;;5.75;46.62
10476;BME280;26166;48.264;11.436;2024-01-16T13:09:27;95423.22;;;5.77;48.01
10476;BME280;26166;48.264;11.436;2024-01-16T13:12:27;95413.44;;;5.79;46.99
10476;BME280;26166;48.264;11.436;2024-01-16T13:15:33;95407.75;;;5.83;47.55
10476;BME280;26166;48.264;11.436;2024-01-16T13:18:33;95414.63;;;5.85;46.38
10476;BME280;26166;48.264;11.436;2024-01-16T13:21:34;95405.81;;;5.86;47.05
10476;BME280;26166;48.264;11.436;2024-01-16T13:24:34;95397.00;;;5.87;46.61
10476;BME280;26166;48.264;11.436;2024-01-16T13:27:36;95390.81;;;5.88;48.08
10476;BME280;26166;48.264;11.436;2024-01-16T13:30:36;95394.41;;;5.87;46.55
10476;BME280;26166;48.264;11.436;2024-01-16T13:33:37;95393.59;;;5.86;46.51
10476;BME280;26166;48.264;11.436;2024-01-16T13:36:37;95389.19;;;5.87;46.40
10476;BME280;26166;48.264;11.436;2024-01-16T13:39:37;95391.16;;;5.85;46.47
10476;BME280;26166;48.264;11.436;2024-01-16T13:42:38;95390.81;;;5.88;46.66
10476;BME280;26166;48.264;11.436;2024-01-16T13:45:38;95385.59;;;5.88;46.65
10476;BME280;26166;48.264;11.436;2024-01-16T13:48:39;95387.41;;;5.87;46.49
10476;BME280;26166;48.264;11.436;2024-01-16T13:51:43;95391.97;;;5.85;47.18
10476;BME280;26166;48.264;11.436;2024-01-16T13:54:43;95387.88;;;5.82;46.02
10476;BME280;26166;48.264;11.436;2024-01-16T13:57:44;95386.75;;;5.85;46.21
10476;BME280;26166;48.264;11.436;2024-01-16T14:00:44;95383.97;;;5.87;46.71
10476;BME280;26166;48.264;11.436;2024-01-16T14:03:44;95394.09;;;5.90;46.58
10476;BME280;26166;48.264;11.436;2024-01-16T14:06:46;95392.44;;;5.89;46.55
10476;BME280;26166;48.264;11.436;2024-01-16T14:09:47;95395.72;;;5.91;46.96
10476;BME280;26166;48.264;11.436;2024-01-16T14:12:48;95402.88;;;5.89;45.95
10476;BME280;26166;48.264;11.436;2024-01-16T14:15:50;95401.09;;;5.89;46.29
10476;BME280;26166;48.264;11.436;2024-01-16T14:18:50;95392.97;;;5.92;46.78
10476;BME280;26166;48.264;11.436;2024-01-16T14:21:51;95395.44;;;5.94;46.56
10476;BME280;26166;48.264;11.436;2024-01-16T14:24:51;95385.97;;;5.93;46.28
10476;BME280;26166;48.264;11.436;2024-01-16T14:27:58;95388.59;;;5.93;46.07
10476;BME280;26166;48.264;11.436;2024-01-16T14:30:59;95388.88;;;5.90;46.91
10476;BME280;26166;48.264;11.436;2024-01-16T14:34:00;95380.09;;;5.91;46.17
10476;BME280;26166;48.264;11.436;2024-01-16T14:37:00;95386.97;;;5.92;46.31
10476;BME280;26166;48.264;11.436;2024-01-16T14:40:00;95376.06;;;5.96;45.21
10476;BME280;26166;48.264;11.436;2024-01-16T14:43:01;95368.41;;;5.95;45.91
10476;BME280;26166;48.264;11.436;2024-01-16T14:46:04;95374.72;;;5.92;45.60
10476;BME280;26166;48.264;11.436;2024-01-16T14:49:04;95372.94;;;5.93;45.40
10476;BME280;26166;48.264;11.436;2024-01-16T14:52:04;95370.19;;;5.94;44.89
10476;BME280;26166;48.264;11.436;2024-01-16T14:55:07;95364.00;;;5.95;45.29
10476;BME280;26166;48.264;11.436;2024-01-16T14:58:07;95374.72;;;5.92;45.09
10476;BME280;26166;48.264;11.436;2024-01-16T15:01:08;95371.94;;;5.86;44.12
10476;BME280;26166;48.264;11.436;2024-01-16T15:04:10;95368.34;;;5.87;44.37
10476;BME280;26166;48.264;11.436;2024-01-16T15:07:10;95356.59;;;5.82;44.92
10476;BME280;26166;48.264;11.436;2024-01-16T15:10:11;95359.03;;;5.84;45.22
10476;BME280;26166;48.264;11.436;2024-01-16T15:13:11;95361.50;;;5.86;45.11
10476;BME280;26166;48.264;11.436;2024-01-16T15:16:12;95350.75;;;5.89;45.47
10476;BME280;26166;48.264;11.436;2024-01-16T15:19:12;95355.00;;;5.90;44.90
10476;BME280;26166;48.264;11.436;2024-01-16T15:22:12;95353.75;;;5.94;45.04
10476;BME280;26166;48.264;11.436;2024-01-16T15:25:12;95356.19;;;5.95;45.16
10476;BME280;26166;48.264;11.436;2024-01-16T15:28:13;95359.78;;;5.94;44.81
10476;BME280;26166;48.264;11.436;2024-01-16T15:31:14;95365.97;;;5.93;44.74
10476;BME280;26166;48.264;11.436;2024-01-16T15:34:14;95369.03;;;5.97;44.69
10476;BME280;26166;48.264;11.436;2024-01-16T15:37:14;95361.41;;;5.95;45.10
10476;BME280;26166;48.264;11.436;2024-01-16T15:40:15;95364.81;;;5.96;45.15
10476;BME280;26166;48.264;11.436;2024-01-16T15:43:16;95366.44;;;5.97;45.79
10476;BME280;26166;48.264;11.436;2024-01-16T15:46:16;95375.75;;;5.99;45.41
10476;BME280;26166;48.264;11.436;2024-01-16T15:49:16;95367.06;;;5.91;44.97
10476;BME280;26166;48.264;11.436;2024-01-16T15:52:17;95370.63;;;5.81;44.99
10476;BME280;26166;48.264;11.436;2024-01-16T15:55:17;95365.72;;;5.78;46.32
10476;BME280;26166;48.264;11.436;2024-01-16T15:58:18;95364.41;;;5.74;46.35
10476;BME280;26166;48.264;11.436;2024-01-16T16:01:18;95361.16;;;5.72;47.01
10476;BME280;26166;48.264;11.436;2024-01-16T16:04:18;95358.19;;;5.75;47.69
10476;BME280;26166;48.264;11.436;2024-01-16T16:07:19;95362.47;;;5.76;46.11
10476;BME280;26166;48.264;11.436;2024-01-16T16:10:19;95366.53;;;5.79;47.11
10476;BME280;26166;48.264;11.436;2024-01-16T16:13:19;95367.19;;;5.81;47.18
10476;BME280;26166;48.264;11.436;2024-01-16T16:16:19;95377.44;;;5.82;47.23